sensor_id;sensor_type;location;lat;lon;timestamp;pressure;altitude;pressure_sealevel;temperature;humidity
69570;BME280;56781;42.292;23.146;2023-07-13T00:01:55;95871.00;;;15.80;100.00
69570;BME280;56781;42.292;23.146;2023-07-13T00:04:24;95869.13;;;15.72;100.00
69570;BME280;56781;42.292;23.146;2023-07-13T00:06:56;95853.88;;;15.67;100.00
69570;BME280;56781;42.292;23.146;2023-07-13T00:09:24;95877.78;;;15.86;100.00
69570;BME280;56781;42.292;23.146;2023-07-13T00:11:54;95876.22;;;15.85;100.00
69570;BME280;56781;42.292;23.146;2023-07-13T00:14:23;95871.25;;;15.96;100.00
69570;BME280;56781;42.292;23.146;2023-07-13T00:16:51;95863.47;;;15.94;100.00
69570;BME280;56781;42.292;23.146;2023-07-13T00:19:19;95856.00;;;15.91;100.00
69570;BME280;56781;42.292;23.146;2023-07-13T00:21:47;95871.88;;;15.93;100.00
69570;BME280;56781;42.292;23.146;2023-07-13T00:24:17;95855.47;;;15.68;100.00
69570;BME280;56781;42.292;23.146;2023-07-13T00:26:50;95864.34;;;15.60;100.00
69570;BME280;56781;42.292;23.146;2023-07-13T00:29:18;95842.88;;;15.34;100.00
69570;BME280;56781;42.292;23.146;2023-07-13T00:31:45;95846.50;;;15.38;100.00
69570;BME280;56781;42.292;23.146;2023-07-13T00:34:13;95850.81;;;15.39;100.00
69570;BME280;56781;42.292;23.146;2023-07-13T00:36:40;95838.28;;;15.35;100.00
69570;BME280;56781;42.292;23.146;2023-07-13T00:39:08;95852.53;;;15.35;100.00
69570;BME280;56781;42.292;23.146;2023-07-13T00:41:38;95837.06;;;15.15;100.00
69570;BME280;56781;42.292;23.146;2023-07-13T00:44:13;95858.91;;;15.22;100.00
69570;BME280;56781;42.292;23.146;2023-07-13T00:46:41;95853.72;;;15.08;100.00
69570;BME280;56781;42.292;23.146;2023-07-13T00:49:11;95840.75;;;15.01;100.00
69570;BME280;56781;42.292;23.146;2023-07-13T00:52:07;95853.13;;;14.94;100.00
69570;BME280;56781;42.292;23.146;2023-07-13T00:54:39;95838.69;;;14.98;100.00
69570;BME280;56781;42.292;23.146;2023-07-13T00:57:12;95865.56;;;15.33;100.00
69570;BME280;56781;42.292;23.146;2023-07-13T00:59:43;95846.91;;;15.11;100.00
69570;BME280;56781;42.292;23.146;2023-07-13T01:02:12;95860.41;;;15.02;100.00
69570;BME280;56781;42.292;23.146;2023-07-13T01:04:40;95839.47;;;14.99;100.00
69570;BME280;56781;42.292;23.146;2023-07-13T01:07:11;95860.69;;;15.18;100.00
69570;BME280;56781;42.292;23.146;2023-07-13T01:09:39;95872.38;;;15.39;100.00
69570;BME280;56781;42.292;23.146;2023-07-13T01:12:07;95860.81;;;15.30;100.00
69570;BME280;56781;42.292;23.146;2023-07-13T01:14:35;95868.78;;;15.18;100.00
69570;BME280;56781;42.292;23.146;2023-07-13T01:17:03;95855.81;;;14.94;100.00
69570;BME280;56781;42.292;23.146;2023-07-13T01:19:41;95864.69;;;14.94;100.00
69570;BME280;56781;42.292;23.146;2023-07-13T01:22:15;95863.91;;;14.76;100.00
69570;BME280;56781;42.292;23.146;2023-07-13T01:24:45;95853.91;;;14.85;100.00
69570;BME280;56781;42.292;23.146;2023-07-13T01:27:16;95866.59;;;14.85;100.00
69570;BME280;56781;42.292;23.146;2023-07-13T01:29:44;95879.59;;;14.83;100.00
69570;BME280;56781;42.292;23.146;2023-07-13T01:32:19;95870.25;;;14.72;100.00
69570;BME280;56781;42.292;23.146;2023-07-13T01:34:52;95885.63;;;14.80;100.00
69570;BME280;56781;42.292;23.146;2023-07-13T01:37:22;95861.34;;;14.97;100.00
69570;BME280;56781;42.292;23.146;2023-07-13T01:39:50;95872.28;;;15.10;100.00
69570;BME280;56781;42.292;23.146;2023-07-13T01:42:17;95858.38;;;14.90;100.00
69570;BME280;56781;42.292;23.146;2023-07-13T01:44:44;95866.75;;;14.80;100.00
69570;BME280;56781;42.292;23.146;2023-07-13T01:47:12;95855.50;;;14.78;100.00
69570;BME280;56781;42.292;23.146;2023-07-13T01:49:39;95855.34;;;14.74;100.00
69570;BME280;56781;42.292;23.146;2023-07-13T01:52:08;95860.88;;;14.87;100.00
69570;BME280;56781;42.292;23.146;2023-07-13T01:54:35;95866.44;;;14.73;100.00
69570;BME280;56781;42.292;23.146;2023-07-13T01:57:02;95867.56;;;14.72;100.00
69570;BME280;56781;42.292;23.146;2023-07-13T01:59:30;95874.38;;;14.60;100.00
69570;BME280;56781;42.292;23.146;2023-07-13T02:01:59;95865.97;;;14.62;100.00
69570;BME280;56781;42.292;23.146;2023-07-13T02:04:27;95867.09;;;14.52;100.00
69570;BME280;56781;42.292;23.146;2023-07-13T02:06:54;95877.06;;;14.60;100.00
69570;BME280;56781;42.292;23.146;2023-07-13T02:09:22;95865.03;;;14.58;100.00
69570;BME280;56781;42.292;23.146;2023-07-13T02:11:49;95878.97;;;14.69;100.00
69570;BME280;56781;42.292;23.146;2023-07-13T02:14:16;95878.44;;;14.49;100.00
69570;BME280;56781;42.292;23.146;2023-07-13T02:16:44;95875.88;;;14.35;100.00
69570;BME280;56781;42.292;23.146;2023-07-13T02:19:11;95877.78;;;14.17;100.00
69570;BME280;56781;42.292;23.146;2023-07-13T02:21:38;95869.22;;;14.15;100.00
69570;BME280;56781;42.292;23.146;2023-07-13T02:24:06;95877.50;;;14.36;100.00
69570;BME280;56781;42.292;23.146;2023-07-13T02:26:33;95890.97;;;14.36;100.00
69570;BME280;56781;42.292;23.146;2023-07-13T02:29:01;95865.59;;;14.29;100.00
69570;BME280;56781;42.292;23.146;2023-07-13T02:31:28;95881.28;;;14.35;100.00
69570;BME280;56781;42.292;23.146;2023-07-13T02:33:55;95880.63;;;14.30;100.00
69570;BME280;56781;42.292;23.146;2023-07-13T02:36:22;95895.38;;;14.41;100.00
69570;BME280;56781;42.292;23.146;2023-07-13T02:38:50;95872.25;;;14.31;100.00
69570;BME280;56781;42.292;23.146;2023-07-13T02:41:17;95892.22;;;14.39;100.00
69570;BME280;56781;42.292;23.146;2023-07-13T02:43:45;95886.78;;;14.22;100.00
69570;BME280;56781;42.292;23.146;2023-07-13T02:46:12;95896.00;;;14.21;100.00
69570;BME280;56781;42.292;23.146;2023-07-13T02:48:40;95890.91;;;14.10;100.00
69570;BME280;56781;42.292;23.146;2023-07-13T02:51:08;95886.13;;;14.07;100.00
69570;BME280;56781;42.292;23.146;2023-07-13T02:53:36;95883.44;;;13.99;100.00
69570;BME280;56781;42.292;23.146;2023-07-13T02:56:04;95893.72;;;14.05;100.00
69570;BME280;56781;42.292;23.146;2023-07-13T02:58:32;95874.19;;;13.82;100.00
69570;BME280;56781;42.292;23.146;2023-07-13T03:00:59;95875.78;;;13.83;100.00
69570;BME280;56781;42.292;23.146;2023-07-13T03:03:26;95890.66;;;13.89;100.00
69570;BME280;56781;42.292;23.146;2023-07-13T03:06:02;95868.59;;;13.70;100.00
69570;BME280;56781;42.292;23.146;2023-07-13T03:08:30;95887.00;;;13.77;100.00
69570;BME280;56781;42.292;23.146;2023-07-13T03:11:09;95874.94;;;13.65;100.00
69570;BME280;56781;42.292;23.146;2023-07-13T03:13:39;95896.34;;;13.79;100.00
69570;BME280;56781;42.292;23.146;2023-07-13T03:16:06;95891.28;;;13.86;100.00
69570;BME280;56781;42.292;23.146;2023-07-13T03:18:36;95893.81;;;13.83;100.00
69570;BME280;56781;42.292;23.146;2023-07-13T03:21:04;95903.97;;;13.94;100.00
69570;BME280;56781;42.292;23.146;2023-07-13T03:23:32;95898.97;;;14.10;100.00
69570;BME280;56781;42.292;23.146;2023-07-13T03:26:06;95899.63;;;14.16;100.00
69570;BME280;56781;42.292;23.146;2023-07-13T03:28:35;95877.56;;;13.96;100.00
69570;BME280;56781;42.292;23.146;2023-07-13T03:31:08;95902.00;;;14.09;100.00
69570;BME280;56781;42.292;23.146;2023-07-13T03:33:37;95900.25;;;14.13;100.00
69570;BME280;56781;42.292;23.146;2023-07-13T03:36:06;95898.81;;;14.15;100.00
69570;BME280;56781;42.292;23.146;2023-07-13T03:38:33;95879.19;;;14.06;100.00
69570;BME280;56781;42.292;23.146;2023-07-13T03:41:01;95886.63;;;14.18;100.00
69570;BME280;56781;42.292;23.146;2023-07-13T03:43:28;95896.28;;;14.19;100.00
69570;BME280;56781;42.292;23.146;2023-07-13T03:45:55;95913.44;;;14.32;100.00
69570;BME280;56781;42.292;23.146;2023-07-13T03:48:23;95881.56;;;14.16;100.00
69570;BME280;56781;42.292;23.146;2023-07-13T03:50:50;95884.94;;;14.31;100.00
69570;BME280;56781;42.292;23.146;2023-07-13T03:53:17;95904.91;;;14.47;100.00
69570;BME280;56781;42.292;23.146;2023-07-13T03:55:46;95896.19;;;14.50;100.00
69570;BME280;56781;42.292;23.146;2023-07-13T03:58:33;95886.53;;;14.49;100.00
69570;BME280;56781;42.292;23.146;2023-07-13T04:01:02;95891.34;;;14.52;100.00
69570;BME280;56781;42.292;23.146;2023-07-13T04:03:31;95895.75;;;14.66;100.00
69570;BME280;56781;42.292;23.146;2023-07-13T04:06:00;95911.63;;;14.76;100.00
69570;BME280;56781;42.292;23.146;2023-07-13T04:08:30;95899.41;;;14.87;100.00
69570;BME280;56781;42.292;23.146;2023-07-13T04:10:58;95913.22;;;14.94;100.00
69570;BME280;56781;42.292;23.146;2023-07-13T04:13:26;95901.78;;;15.15;100.00
69570;BME280;56781;42.292;23.146;2023-07-13T04:15:54;95894.94;;;15.26;100.00
69570;BME280;56781;42.292;23.146;2023-07-13T04:18:21;95886.69;;;15.31;100.00
69570;BME280;56781;42.292;23.146;2023-07-13T04:20:49;95888.53;;;15.48;100.00
69570;BME280;56781;42.292;23.146;2023-07-13T04:23:17;95888.81;;;15.72;100.00
69570;BME280;56781;42.292;23.146;2023-07-13T04:25:46;95888.88;;;15.93;100.00
69570;BME280;56781;42.292;23.146;2023-07-13T04:28:13;95903.50;;;16.22;100.00
69570;BME280;56781;42.292;23.146;2023-07-13T04:30:40;95912.69;;;16.30;100.00
69570;BME280;56781;42.292;23.146;2023-07-13T04:33:08;95898.09;;;16.22;100.00
69570;BME280;56781;42.292;23.146;2023-07-13T04:35:35;95898.00;;;16.39;100.00
69570;BME280;56781;42.292;23.146;2023-07-13T04:38:03;95888.72;;;16.49;100.00
69570;BME280;56781;42.292;23.146;2023-07-13T04:40:31;95869.47;;;16.51;100.00
69570;BME280;56781;42.292;23.146;2023-07-13T04:42:58;95887.00;;;16.66;100.00
69570;BME280;56781;42.292;23.146;2023-07-13T04:45:25;95878.31;;;16.60;100.00
69570;BME280;56781;42.292;23.146;2023-07-13T04:47:53;95890.22;;;16.89;100.00
69570;BME280;56781;42.292;23.146;2023-07-13T04:50:21;95888.81;;;17.03;100.00
69570;BME280;56781;42.292;23.146;2023-07-13T04:52:50;95892.59;;;17.23;100.00
69570;BME280;56781;42.292;23.146;2023-07-13T04:55:19;95876.41;;;17.36;100.00
69570;BME280;56781;42.292;23.146;2023-07-13T04:57:47;95881.88;;;17.60;100.00
69570;BME280;56781;42.292;23.146;2023-07-13T05:00:15;95901.56;;;17.94;100.00
69570;BME280;56781;42.292;23.146;2023-07-13T05:02:45;95907.31;;;18.05;100.00
69570;BME280;56781;42.292;23.146;2023-07-13T05:05:13;95905.63;;;18.37;100.00
69570;BME280;56781;42.292;23.146;2023-07-13T05:07:40;95909.00;;;18.58;100.00
69570;BME280;56781;42.292;23.146;2023-07-13T05:10:08;95889.00;;;18.63;100.00
69570;BME280;56781;42.292;23.146;2023-07-13T05:12:36;95881.84;;;18.83;100.00
69570;BME280;56781;42.292;23.146;2023-07-13T05:15:03;95897.16;;;19.03;100.00
69570;BME280;56781;42.292;23.146;2023-07-13T05:17:31;95907.47;;;19.26;100.00
69570;BME280;56781;42.292;23.146;2023-07-13T05:19:58;95886.25;;;19.44;100.00
69570;BME280;56781;42.292;23.146;2023-07-13T05:22:26;95896.69;;;19.58;100.00
69570;BME280;56781;42.292;23.146;2023-07-13T05:24:53;95896.28;;;19.72;100.00
69570;BME280;56781;42.292;23.146;2023-07-13T05:27:20;95904.34;;;20.00;100.00
69570;BME280;56781;42.292;23.146;2023-07-13T05:29:47;95898.00;;;20.27;99.79
69570;BME280;56781;42.292;23.146;2023-07-13T05:32:15;95882.75;;;20.39;98.17
69570;BME280;56781;42.292;23.146;2023-07-13T05:34:42;95907.88;;;20.67;97.65
69570;BME280;56781;42.292;23.146;2023-07-13T05:37:09;95897.63;;;20.96;97.11
69570;BME280;56781;42.292;23.146;2023-07-13T05:39:36;95917.47;;;21.16;98.48
69570;BME280;56781;42.292;23.146;2023-07-13T05:42:04;95915.44;;;21.32;94.79
69570;BME280;56781;42.292;23.146;2023-07-13T05:44:31;95907.72;;;21.54;95.65
69570;BME280;56781;42.292;23.146;2023-07-13T05:46:58;95913.69;;;21.82;93.26
69570;BME280;56781;42.292;23.146;2023-07-13T05:49:26;95908.72;;;22.11;91.04
69570;BME280;56781;42.292;23.146;2023-07-13T05:51:53;95920.44;;;22.34;91.57
69570;BME280;56781;42.292;23.146;2023-07-13T05:54:20;95923.31;;;22.72;86.64
69570;BME280;56781;42.292;23.146;2023-07-13T05:56:47;95928.34;;;22.70;85.65
69570;BME280;56781;42.292;23.146;2023-07-13T05:59:15;95921.91;;;23.12;84.62
69570;BME280;56781;42.292;23.146;2023-07-13T06:01:42;95937.16;;;23.47;81.94
69570;BME280;56781;42.292;23.146;2023-07-13T06:04:09;95934.59;;;23.61;81.86
69570;BME280;56781;42.292;23.146;2023-07-13T06:06:36;95934.84;;;23.82;82.63
69570;BME280;56781;42.292;23.146;2023-07-13T06:09:03;95931.88;;;24.02;81.82
69570;BME280;56781;42.292;23.146;2023-07-13T06:11:30;95923.03;;;24.16;80.40
69570;BME280;56781;42.292;23.146;2023-07-13T06:13:58;95919.78;;;24.44;78.54
69570;BME280;56781;42.292;23.146;2023-07-13T06:16:25;95918.72;;;24.59;79.44
69570;BME280;56781;42.292;23.146;2023-07-13T06:18:52;95912.63;;;24.87;77.04
69570;BME280;56781;42.292;23.146;2023-07-13T06:21:21;95919.00;;;25.13;77.56
69570;BME280;56781;42.292;23.146;2023-07-13T06:23:50;95920.59;;;25.14;77.19
69570;BME280;56781;42.292;23.146;2023-07-13T06:26:19;95936.81;;;25.58;73.36
69570;BME280;56781;42.292;23.146;2023-07-13T06:28:47;95919.19;;;25.59;74.49
69570;BME280;56781;42.292;23.146;2023-07-13T06:31:14;95913.75;;;25.74;72.74
69570;BME280;56781;42.292;23.146;2023-07-13T06:33:42;95916.91;;;25.83;73.26
69570;BME280;56781;42.292;23.146;2023-07-13T06:36:10;95904.81;;;26.09;71.52
69570;BME280;56781;42.292;23.146;2023-07-13T06:38:38;95905.19;;;26.43;71.55
69570;BME280;56781;42.292;23.146;2023-07-13T06:41:06;95898.16;;;26.53;69.25
69570;BME280;56781;42.292;23.146;2023-07-13T06:43:34;95899.66;;;26.83;66.77
69570;BME280;56781;42.292;23.146;2023-07-13T06:46:02;95882.38;;;26.93;68.04
69570;BME280;56781;42.292;23.146;2023-07-13T06:48:29;95887.00;;;27.14;68.54
69570;BME280;56781;42.292;23.146;2023-07-13T06:50:56;95875.53;;;27.37;64.75
69570;BME280;56781;42.292;23.146;2023-07-13T06:53:23;95882.13;;;27.54;64.11
69570;BME280;56781;42.292;23.146;2023-07-13T06:55:50;95886.78;;;27.64;64.04
69570;BME280;56781;42.292;23.146;2023-07-13T06:58:18;95867.44;;;27.78;63.66
69570;BME280;56781;42.292;23.146;2023-07-13T07:00:50;95880.50;;;27.60;64.92
69570;BME280;56781;42.292;23.146;2023-07-13T07:03:18;95865.41;;;27.90;63.43
69570;BME280;56781;42.292;23.146;2023-07-13T07:05:45;95868.25;;;27.82;62.55
69570;BME280;56781;42.292;23.146;2023-07-13T07:08:12;95876.69;;;28.10;63.05
69570;BME280;56781;42.292;23.146;2023-07-13T07:10:40;95863.88;;;27.89;61.52
69570;BME280;56781;42.292;23.146;2023-07-13T07:13:07;95868.22;;;28.35;62.30
69570;BME280;56781;42.292;23.146;2023-07-13T07:15:35;95871.03;;;28.69;59.27
69570;BME280;56781;42.292;23.146;2023-07-13T07:18:02;95867.94;;;29.01;59.44
69570;BME280;56781;42.292;23.146;2023-07-13T07:20:30;95845.53;;;28.99;58.33
69570;BME280;56781;42.292;23.146;2023-07-13T07:22:57;95863.44;;;29.49;57.01
69570;BME280;56781;42.292;23.146;2023-07-13T07:25:24;95860.34;;;29.74;56.42
69570;BME280;56781;42.292;23.146;2023-07-13T07:27:51;95858.63;;;29.53;57.05
69570;BME280;56781;42.292;23.146;2023-07-13T07:30:21;95844.22;;;29.42;55.96
69570;BME280;56781;42.292;23.146;2023-07-13T07:32:51;95857.38;;;30.12;56.12
69570;BME280;56781;42.292;23.146;2023-07-13T07:35:23;95849.06;;;30.39;51.52
69570;BME280;56781;42.292;23.146;2023-07-13T07:37:50;95844.19;;;30.46;51.73
69570;BME280;56781;42.292;23.146;2023-07-13T07:40:18;95843.13;;;30.40;50.84
69570;BME280;56781;42.292;23.146;2023-07-13T07:42:49;95840.19;;;30.71;52.28
69570;BME280;56781;42.292;23.146;2023-07-13T07:45:16;95838.41;;;30.84;50.38
69570;BME280;56781;42.292;23.146;2023-07-13T07:47:43;95838.09;;;30.99;51.28
69570;BME280;56781;42.292;23.146;2023-07-13T07:50:10;95844.97;;;30.90;49.99
69570;BME280;56781;42.292;23.146;2023-07-13T07:52:37;95833.44;;;30.96;50.31
69570;BME280;56781;42.292;23.146;2023-07-13T07:55:06;95828.97;;;30.82;48.81
69570;BME280;56781;42.292;23.146;2023-07-13T07:57:36;95837.75;;;30.97;48.01
69570;BME280;56781;42.292;23.146;2023-07-13T08:00:06;95832.50;;;31.22;47.85
69570;BME280;56781;42.292;23.146;2023-07-13T08:02:37;95831.63;;;31.25;46.55
69570;BME280;56781;42.292;23.146;2023-07-13T08:05:08;95821.19;;;31.33;49.19
69570;BME280;56781;42.292;23.146;2023-07-13T08:07:39;95825.41;;;31.57;46.64
69570;BME280;56781;42.292;23.146;2023-07-13T08:10:06;95818.22;;;31.44;44.93
69570;BME280;56781;42.292;23.146;2023-07-13T08:12:35;95821.66;;;31.84;45.42
69570;BME280;56781;42.292;23.146;2023-07-13T08:15:09;95821.41;;;31.95;45.17
69570;BME280;56781;42.292;23.146;2023-07-13T08:17:36;95827.00;;;31.91;47.73
69570;BME280;56781;42.292;23.146;2023-07-13T08:20:04;95814.38;;;31.38;45.27
69570;BME280;56781;42.292;23.146;2023-07-13T08:22:31;95826.34;;;31.51;47.81
69570;BME280;56781;42.292;23.146;2023-07-13T08:24:59;95816.75;;;31.55;45.94
69570;BME280;56781;42.292;23.146;2023-07-13T08:27:28;95813.41;;;31.64;49.14
69570;BME280;56781;42.292;23.146;2023-07-13T08:29:55;95823.88;;;31.89;46.31
69570;BME280;56781;42.292;23.146;2023-07-13T08:32:23;95818.94;;;31.64;47.89
69570;BME280;56781;42.292;23.146;2023-07-13T08:34:50;95794.78;;;31.81;47.95
69570;BME280;56781;42.292;23.146;2023-07-13T08:37:19;95800.94;;;31.89;46.05
69570;BME280;56781;42.292;23.146;2023-07-13T08:39:46;95816.63;;;32.28;50.11
69570;BME280;56781;42.292;23.146;2023-07-13T08:42:36;95815.13;;;32.40;47.04
69570;BME280;56781;42.292;23.146;2023-07-13T08:45:22;95794.84;;;32.14;47.41
69570;BME280;56781;42.292;23.146;2023-07-13T08:50:27;95798.34;;;32.31;49.62
69570;BME280;56781;42.292;23.146;2023-07-13T08:52:56;95785.31;;;31.98;48.99
69570;BME280;56781;42.292;23.146;2023-07-13T08:55:28;95785.94;;;32.35;49.81
69570;BME280;56781;42.292;23.146;2023-07-13T08:58:27;95778.31;;;31.94;49.25
69570;BME280;56781;42.292;23.146;2023-07-13T09:03:41;95782.88;;;32.17;48.58
69570;BME280;56781;42.292;23.146;2023-07-13T09:06:12;95776.81;;;32.06;48.26
69570;BME280;56781;42.292;23.146;2023-07-13T09:09:01;95782.06;;;32.16;47.95
69570;BME280;56781;42.292;23.146;2023-07-13T09:11:45;95769.28;;;32.22;52.10
69570;BME280;56781;42.292;23.146;2023-07-13T09:16:59;95752.44;;;32.30;48.27
69570;BME280;56781;42.292;23.146;2023-07-13T09:19:30;95743.47;;;32.26;49.52
69570;BME280;56781;42.292;23.146;2023-07-13T09:22:01;95742.75;;;32.21;49.86
69570;BME280;56781;42.292;23.146;2023-07-13T09:27:21;95739.03;;;32.28;51.08
69570;BME280;56781;42.292;23.146;2023-07-13T09:29:54;95720.47;;;32.41;51.64
69570;BME280;56781;42.292;23.146;2023-07-13T09:32:24;95730.31;;;32.59;53.33
69570;BME280;56781;42.292;23.146;2023-07-13T09:34:54;95735.38;;;32.48;51.18
69570;BME280;56781;42.292;23.146;2023-07-13T09:37:26;95737.97;;;32.67;48.80
69570;BME280;56781;42.292;23.146;2023-07-13T09:39:56;95737.50;;;32.56;49.79
69570;BME280;56781;42.292;23.146;2023-07-13T09:42:25;95733.84;;;32.59;51.76
69570;BME280;56781;42.292;23.146;2023-07-13T09:44:55;95733.66;;;32.66;48.74
69570;BME280;56781;42.292;23.146;2023-07-13T09:47:27;95743.91;;;32.82;49.01
69570;BME280;56781;42.292;23.146;2023-07-13T09:49:59;95734.16;;;33.03;47.00
69570;BME280;56781;42.292;23.146;2023-07-13T09:52:55;95730.31;;;33.39;45.50
69570;BME280;56781;42.292;23.146;2023-07-13T09:55:29;95734.31;;;33.51;46.76
69570;BME280;56781;42.292;23.146;2023-07-13T09:57:57;95722.44;;;33.38;47.77
69570;BME280;56781;42.292;23.146;2023-07-13T10:00:29;95721.91;;;33.56;43.21
69570;BME280;56781;42.292;23.146;2023-07-13T10:03:16;95736.72;;;33.87;37.40
69570;BME280;56781;42.292;23.146;2023-07-13T10:05:46;95721.72;;;33.85;41.34
69570;BME280;56781;42.292;23.146;2023-07-13T10:08:29;95706.97;;;33.88;37.71
69570;BME280;56781;42.292;23.146;2023-07-13T10:11:08;95720.44;;;34.11;40.71
69570;BME280;56781;42.292;23.146;2023-07-13T10:13:45;95720.78;;;34.01;34.44
69570;BME280;56781;42.292;23.146;2023-07-13T10:16:12;95710.56;;;34.10;35.67
69570;BME280;56781;42.292;23.146;2023-07-13T10:18:44;95700.22;;;33.98;37.04
69570;BME280;56781;42.292;23.146;2023-07-13T10:21:18;95715.78;;;34.08;35.59
69570;BME280;56781;42.292;23.146;2023-07-13T10:24:23;95710.63;;;34.19;37.27
69570;BME280;56781;42.292;23.146;2023-07-13T10:27:14;95683.03;;;34.25;35.50
69570;BME280;56781;42.292;23.146;2023-07-13T10:29:46;95701.28;;;34.26;35.94
69570;BME280;56781;42.292;23.146;2023-07-13T10:32:14;95702.06;;;34.27;38.27
69570;BME280;56781;42.292;23.146;2023-07-13T10:34:44;95679.63;;;34.21;35.63
69570;BME280;56781;42.292;23.146;2023-07-13T10:37:22;95686.88;;;34.40;34.14
69570;BME280;56781;42.292;23.146;2023-07-13T10:39:50;95676.19;;;34.39;38.50
69570;BME280;56781;42.292;23.146;2023-07-13T10:42:40;95664.56;;;34.31;34.85
69570;BME280;56781;42.292;23.146;2023-07-13T10:45:19;95659.28;;;34.55;36.50
69570;BME280;56781;42.292;23.146;2023-07-13T10:47:49;95647.69;;;34.48;35.53
69570;BME280;56781;42.292;23.146;2023-07-13T10:50:20;95644.59;;;34.46;31.79
69570;BME280;56781;42.292;23.146;2023-07-13T10:53:01;95662.97;;;34.74;35.14
69570;BME280;56781;42.292;23.146;2023-07-13T10:55:54;95648.47;;;34.70;35.58
69570;BME280;56781;42.292;23.146;2023-07-13T10:58:24;95648.72;;;34.94;30.46
69570;BME280;56781;42.292;23.146;2023-07-13T11:01:14;95650.84;;;34.90;29.86
69570;BME280;56781;42.292;23.146;2023-07-13T11:18:53;95642.19;;;35.28;30.73
69570;BME280;56781;42.292;23.146;2023-07-13T11:22:02;95631.38;;;35.21;29.56
69570;BME280;56781;42.292;23.146;2023-07-13T11:24:47;95650.13;;;35.39;32.39
69570;BME280;56781;42.292;23.146;2023-07-13T11:27:33;95633.41;;;35.39;30.42
69570;BME280;56781;42.292;23.146;2023-07-13T11:30:24;95634.34;;;35.36;30.55
69570;BME280;56781;42.292;23.146;2023-07-13T11:33:22;95640.56;;;35.40;30.04
69570;BME280;56781;42.292;23.146;2023-07-13T11:36:12;95612.00;;;35.18;28.49
69570;BME280;56781;42.292;23.146;2023-07-13T11:38:42;95600.00;;;35.21;30.55
69570;BME280;56781;42.292;23.146;2023-07-13T11:41:15;95601.53;;;35.31;31.04
69570;BME280;56781;42.292;23.146;2023-07-13T11:43:44;95593.78;;;35.26;31.99
69570;BME280;56781;42.292;23.146;2023-07-13T11:46:16;95599.25;;;35.48;31.09
69570;BME280;56781;42.292;23.146;2023-07-13T11:48:46;95593.22;;;35.40;29.55
69570;BME280;56781;42.292;23.146;2023-07-13T11:51:34;95603.91;;;35.51;29.59
69570;BME280;56781;42.292;23.146;2023-07-13T11:54:05;95596.31;;;35.42;30.20
69570;BME280;56781;42.292;23.146;2023-07-13T11:56:36;95584.59;;;35.57;31.06
69570;BME280;56781;42.292;23.146;2023-07-13T11:59:08;95575.63;;;35.71;27.32
69570;BME280;56781;42.292;23.146;2023-07-13T12:01:52;95564.00;;;35.82;29.02
69570;BME280;56781;42.292;23.146;2023-07-13T12:07:07;95577.78;;;35.76;27.27
69570;BME280;56781;42.292;23.146;2023-07-13T12:09:36;95583.22;;;35.89;27.42
69570;BME280;56781;42.292;23.146;2023-07-13T12:12:03;95577.47;;;35.83;28.45
69570;BME280;56781;42.292;23.146;2023-07-13T12:14:33;95573.31;;;35.69;26.95
69570;BME280;56781;42.292;23.146;2023-07-13T12:17:00;95567.72;;;35.79;26.91
69570;BME280;56781;42.292;23.146;2023-07-13T12:19:30;95559.38;;;35.60;27.98
69570;BME280;56781;42.292;23.146;2023-07-13T12:21:58;95569.88;;;35.56;30.27
69570;BME280;56781;42.292;23.146;2023-07-13T12:24:26;95554.06;;;35.53;30.49
69570;BME280;56781;42.292;23.146;2023-07-13T12:27:04;95560.44;;;35.72;29.08
69570;BME280;56781;42.292;23.146;2023-07-13T12:29:32;95552.69;;;35.85;28.29
69570;BME280;56781;42.292;23.146;2023-07-13T12:32:00;95549.28;;;35.90;28.22
69570;BME280;56781;42.292;23.146;2023-07-13T12:34:27;95553.47;;;35.95;29.45
69570;BME280;56781;42.292;23.146;2023-07-13T12:36:58;95564.00;;;36.00;27.87
69570;BME280;56781;42.292;23.146;2023-07-13T12:39:35;95548.34;;;35.93;28.97
69570;BME280;56781;42.292;23.146;2023-07-13T12:42:25;95543.13;;;35.86;32.12
69570;BME280;56781;42.292;23.146;2023-07-13T12:47:40;95553.16;;;36.02;25.94
69570;BME280;56781;42.292;23.146;2023-07-13T12:50:14;95532.75;;;35.87;28.88
69570;BME280;56781;42.292;23.146;2023-07-13T12:52:43;95539.84;;;35.88;28.48
69570;BME280;56781;42.292;23.146;2023-07-13T12:55:19;95525.59;;;35.95;30.38
69570;BME280;56781;42.292;23.146;2023-07-13T12:57:56;95524.97;;;36.00;28.46
69570;BME280;56781;42.292;23.146;2023-07-13T13:00:33;95529.63;;;36.03;30.00
69570;BME280;56781;42.292;23.146;2023-07-13T13:03:10;95529.91;;;36.14;31.69
69570;BME280;56781;42.292;23.146;2023-07-13T13:06:03;95522.81;;;35.95;32.34
69570;BME280;56781;42.292;23.146;2023-07-13T13:08:33;95510.91;;;35.94;28.55
69570;BME280;56781;42.292;23.146;2023-07-13T13:11:02;95518.47;;;36.03;27.36
69570;BME280;56781;42.292;23.146;2023-07-13T13:13:29;95505.00;;;35.92;28.20
69570;BME280;56781;42.292;23.146;2023-07-13T13:16:02;95507.00;;;36.01;28.66
69570;BME280;56781;42.292;23.146;2023-07-13T13:18:33;95489.53;;;35.91;27.53
69570;BME280;56781;42.292;23.146;2023-07-13T13:21:02;95506.53;;;36.03;29.58
69570;BME280;56781;42.292;23.146;2023-07-13T13:23:29;95508.25;;;35.91;32.55
69570;BME280;56781;42.292;23.146;2023-07-13T13:25:56;95491.88;;;35.74;31.08
69570;BME280;56781;42.292;23.146;2023-07-13T13:28:24;95503.66;;;35.79;33.24
69570;BME280;56781;42.292;23.146;2023-07-13T13:30:51;95504.56;;;35.85;31.44
69570;BME280;56781;42.292;23.146;2023-07-13T13:33:20;95482.91;;;35.89;29.91
69570;BME280;56781;42.292;23.146;2023-07-13T13:35:48;95479.00;;;35.95;28.37